This is the latest recevied weather packets stored in our database for station/object K9ABJ. If no packets are shown the sender has not sent any weather packets the latest 10 day(s).
| Time | Temp. | Humidity | Pressure | Rain* | Wind** | Luminosity | Snow |
|---|---|---|---|---|---|---|---|
| 1787956921 | 26.11° C | 56% | 1020.2 hPa | 0 mm | - | 113 W/m² | - |
| 1787956621 | 26.67° C | 54% | 1020.4 hPa | 0 mm | - | 153 W/m² | - |
| 1787956315 | 26.67° C | 53% | 1020.4 hPa | 0 mm | - | 160 W/m² | - |
| 1787956011 | 26.67° C | 52% | 1020.3 hPa | 0 mm | - | 158 W/m² | - |
| 1787955706 | 26.67° C | 53% | 1020.5 hPa | 0 mm | - | 157 W/m² | - |
| 1787955402 | 26.67° C | 54% | 1020.4 hPa | 0 mm | - | 206 W/m² | - |
| 1787955100 | 26.11° C | 53% | 1020.4 hPa | 0 mm | - | 136 W/m² | - |
| 1787954796 | 26.67° C | 53% | 1020.4 hPa | 0 mm | - | 215 W/m² | - |
| 1787954492 | 26.67° C | 52% | 1020.5 hPa | 0 mm | - | 164 W/m² | - |
| 1787954192 | 27.22° C | 52% | 1020.4 hPa | 0 mm | - | 224 W/m² | - |
| 1787953892 | 28.33° C | 51% | 1020.5 hPa | 0 mm | - | 193 W/m² | - |
| 1787953592 | 26.67° C | 54% | 1020.4 hPa | 0 mm | - | 170 W/m² | - |
| 1787953292 | 26.11° C | 53% | 1020.2 hPa | 0 mm | - | 105 W/m² | - |
| 1787952989 | 26.11° C | 54% | 1020.4 hPa | 0 mm | - | 78 W/m² | - |
| 1787952689 | 25.56° C | 56% | 1020.5 hPa | 0 mm | - | 72 W/m² | - |
| 1787952384 | 25.56° C | 55% | 1020.3 hPa | 0 mm | - | 72 W/m² | - |
| 1787952080 | 26.11° C | 54% | 1020.3 hPa | 0 mm | - | 77 W/m² | - |
| 1787951779 | 25.56° C | 54% | 1020.7 hPa | 0 mm | - | 72 W/m² | - |
| 1787951475 | 25.56° C | 53% | 1020.5 hPa | 0 mm | - | 71 W/m² | - |
| 1787951171 | 25.56° C | 54% | 1020.6 hPa | 0 mm | - | 70 W/m² | - |
| 1787950867 | 26.11° C | 55% | 1020.4 hPa | 0 mm | - | 83 W/m² | - |
| 1787950562 | 26.11° C | 55% | 1020.7 hPa | 0 mm | - | 103 W/m² | - |
| 1787950258 | 25.56° C | 55% | 1020.5 hPa | 0 mm | - | 95 W/m² | - |
| 1787949954 | 26.67° C | 52% | 1020.6 hPa | 0 mm | - | 103 W/m² | - |
| 1787949649 | 26.11° C | 53% | 1020.4 hPa | 0 mm | - | 158 W/m² | - |
* Rain latest hour (hover to see other rain measurements)
** Current wind speed in m/s (hover to see current wind gust speed)